HAL895 PHNL-NCRG
Flight info
| Callsign | HAL895 |
|---|---|
| Flight time | N/A |
| Altitude | 31000 |
| Route | OPIHI3 CARRP DCT DATBE DCT RAGDE/N0464F330 B596 RAMIZ/N0460F350 B596 PULOS KARSA1B |
| Aircraft | A321/M-SDE3FGHIRWY/LB1 |
Departure
| Time | 2026-05-03 22:47 |
|---|---|
| Airport | Daniel K. Inouye International Airport (PHNL) |
Arrival
| Time | N/A |
|---|---|
| Airport | Rarotonga International Airport (NCRG) |
| Time | Latitude | Longitude | Altitude | Speed | Heading |
|---|---|---|---|---|---|
| 2026-05-03 22:32 | 21.33009 | -157.92067 | 16 ft | 0 kts | 101° |
| 2026-05-03 22:36 | 21.33010 | -157.92074 | 16 ft | 4 kts | 101° |
| 2026-05-03 22:36 | 21.33015 | -157.92102 | 16 ft | 4 kts | 103° |
| 2026-05-03 22:37 | 21.33024 | -157.92127 | 19 ft | 4 kts | 137° |
| 2026-05-03 22:37 | 21.33045 | -157.92137 | 17 ft | 4 kts | 185° |
| 2026-05-03 22:37 | 21.33052 | -157.92137 | 17 ft | 1 kts | 191° |
| 2026-05-03 22:37 | 21.33049 | -157.92137 | 16 ft | 0 kts | 190° |
| 2026-05-03 22:39 | 21.33048 | -157.92137 | 15 ft | 0 kts | 189° |
| 2026-05-03 22:39 | 21.33030 | -157.92141 | 15 ft | 5 kts | 190° |
| 2026-05-03 22:39 | 21.32990 | -157.92148 | 15 ft | 6 kts | 189° |
| 2026-05-03 22:40 | 21.32953 | -157.92155 | 15 ft | 6 kts | 189° |
| 2026-05-03 22:40 | 21.32898 | -157.92165 | 16 ft | 10 kts | 189° |
| 2026-05-03 22:40 | 21.32821 | -157.92182 | 19 ft | 12 kts | 201° |
| 2026-05-03 22:40 | 21.32777 | -157.92240 | 20 ft | 11 kts | 256° |
| 2026-05-03 22:41 | 21.32772 | -157.92349 | 17 ft | 18 kts | 268° |
| 2026-05-03 22:41 | 21.32775 | -157.92492 | 17 ft | 18 kts | 272° |
| 2026-05-03 22:41 | 21.32775 | -157.92616 | 19 ft | 15 kts | 268° |
| 2026-05-03 22:41 | 21.32768 | -157.92717 | 20 ft | 13 kts | 263° |
| 2026-05-03 22:42 | 21.32746 | -157.92814 | 18 ft | 13 kts | 258° |
| 2026-05-03 22:42 | 21.32741 | -157.92880 | 18 ft | 13 kts | 269° |
| 2026-05-03 22:42 | 21.32741 | -157.92978 | 18 ft | 13 kts | 271° |
| 2026-05-03 22:42 | 21.32745 | -157.93086 | 20 ft | 17 kts | 271° |
| 2026-05-03 22:43 | 21.32746 | -157.93225 | 20 ft | 21 kts | 268° |
| 2026-05-03 22:43 | 21.32742 | -157.93444 | 19 ft | 24 kts | 269° |
| 2026-05-03 22:43 | 21.32741 | -157.93563 | 20 ft | 22 kts | 270° |
| 2026-05-03 22:43 | 21.32744 | -157.93718 | 21 ft | 20 kts | 271° |
| 2026-05-03 22:44 | 21.32741 | -157.93903 | 20 ft | 17 kts | 268° |
| 2026-05-03 22:44 | 21.32741 | -157.93987 | 21 ft | 16 kts | 270° |
| 2026-05-03 22:44 | 21.32742 | -157.94104 | 22 ft | 16 kts | 270° |
| 2026-05-03 22:44 | 21.32743 | -157.94227 | 22 ft | 17 kts | 270° |
| 2026-05-03 22:45 | 21.32721 | -157.94327 | 21 ft | 9 kts | 213° |
| 2026-05-03 22:45 | 21.32668 | -157.94330 | 23 ft | 7 kts | 179° |
| 2026-05-03 22:45 | 21.32618 | -157.94329 | 24 ft | 7 kts | 178° |
| 2026-05-03 22:45 | 21.32552 | -157.94327 | 25 ft | 11 kts | 178° |
| 2026-05-03 22:46 | 21.32528 | -157.94309 | 25 ft | 0 kts | 92° |
| 2026-05-03 22:46 | 21.32528 | -157.94306 | 25 ft | 0 kts | 91° |
| 2026-05-03 22:46 | 21.32528 | -157.94305 | 25 ft | 1 kts | 91° |
| 2026-05-03 22:46 | 21.32528 | -157.94071 | 24 ft | 69 kts | 89° |
| 2026-05-03 22:47 | 21.32529 | -157.93308 | 17 ft | 133 kts | 89° |
| 2026-05-03 22:47 | 21.32521 | -157.92151 | 156 ft | 168 kts | 89° |
| 2026-05-03 22:47 | 21.32478 | -157.90905 | 912 ft | 167 kts | 96° |
| 2026-05-03 22:47 | 21.31847 | -157.89827 | 1600 ft | 188 kts | 144° |
| 2026-05-03 22:48 | 21.30490 | -157.89554 | 2061 ft | 211 kts | 181° |
| 2026-05-03 22:48 | 21.29008 | -157.89980 | 2207 ft | 231 kts | 196° |
| 2026-05-03 22:48 | 21.27429 | -157.90639 | 2211 ft | 258 kts | 198° |
| 2026-05-03 22:48 | 21.25639 | -157.91420 | 2097 ft | 290 kts | 199° |
| 2026-05-03 22:49 | 21.23811 | -157.92243 | 2937 ft | 286 kts | 199° |
| 2026-05-03 22:49 | 21.21884 | -157.93082 | 2931 ft | 315 kts | 198° |
| 2026-05-03 22:49 | 21.19741 | -157.93947 | 3158 ft | 328 kts | 198° |
| 2026-05-03 22:49 | 21.19702 | -157.93963 | 3182 ft | 328 kts | 198° |